Takatori — JL6597 — position and weather

sailwx.info

Track history (hours):
 
Tides and Currents Weather Stations Pressure Air Temp Water Temp Dewpoint Dewpoint Depression Visibility Wind Speed Wind Dir Waves Ship Positions

Takatori

Last reported at 2017-Sep-22 01:59 UTC. Time now 2017-Sep-22 22:29 UTC.
Position N 34°41' E 135°16'.

Length 74 m; draft 4 m.

Type: Cargo ship. MMSI: 431501607.

Date/timePositionNaut miles runAvg speedWind from/ knotsBaromVisibWave heightAir tempDewpointWater temp
2017-Sep-22 01:59N 34°41' E 135°16'0 0.2
2017-Sep-22 01:25N 34°41' E 135°16'0 0.0
2017-Sep-22 00:55N 34°41' E 135°16'0 0.2
2017-Sep-22 00:30N 34°41' E 135°17'510.5
2017-Sep-22 00:00N 34°38' E 135°22'2 4.1
2017-Sep-21 23:27N 34°38' E 135°25'0 0.0
2017-Sep-21 22:57N 34°38' E 135°25'0 0.0
2017-Sep-21 22:24N 34°38' E 135°25'0 0.0
2017-Sep-21 22:00N 34°38' E 135°25'1 1.2
2017-Sep-21 21:29N 34°38' E 135°24'510.2
2017-Sep-21 20:57N 34°36' E 135°18'510.8
2017-Sep-21 20:28N 34°35' E 135°12'612.1
2017-Sep-21 19:59N 34°35' E 135°04'1 0.0
2017-Sep-20 06:03N 34°36' E 135°04'310.2
2017-Sep-20 05:47N 34°37' E 135°07'411.2
2017-Sep-20 05:27N 34°37' E 135°11'4 9.0
2017-Sep-20 05:00N 34°40' E 135°15'2 3.1
2017-Sep-20 04:26N 34°41' E 135°17'0 0.6
2017-Sep-20 03:56N 34°41' E 135°17'0 0.0
2017-Sep-20 02:26N 34°41' E 135°17'0 0.0
2017-Sep-20 01:56N 34°41' E 135°17'0 0.0
2017-Sep-20 01:26N 34°41' E 135°17'0 0.0
2017-Sep-20 00:56N 34°41' E 135°17'0 0.0
2017-Sep-20 00:26N 34°41' E 135°17'0 0.0
2017-Sep-19 23:59N 34°41' E 135°17'0 0.0
2017-Sep-19 23:29N 34°41' E 135°17'0 0.1
2017-Sep-19 22:59N 34°41' E 135°17'0 0.0
2017-Sep-19 22:23N 34°41' E 135°17'0 0.0
2017-Sep-19 21:59N 34°41' E 135°17'0 0.0
2017-Sep-19 21:30N 34°41' E 135°17'0 0.0
2017-Sep-19 21:00N 34°41' E 135°17'0 0.0
2017-Sep-19 20:30N 34°41' E 135°17'0 0.0
2017-Sep-19 20:00N 34°41' E 135°17'1 1.4
2017-Sep-19 19:30N 34°40' E 135°16'4 8.9
2017-Sep-19 19:00N 34°37' E 135°12'612.5
2017-Sep-19 18:30N 34°35' E 135°05'2 0.1
2017-Sep-18 11:28N 34°36' E 135°06'611.9
2017-Sep-18 11:00N 34°37' E 135°13'5 9.1
2017-Sep-18 10:29N 34°41' E 135°17'0 0.0
2017-Sep-18 09:49N 34°41' E 135°17'0 0.0
2017-Sep-18 09:25N 34°41' E 135°17'0 0.8
2017-Sep-18 08:55N 34°41' E 135°16'0 0.0
2017-Sep-18 08:25N 34°41' E 135°16'0 0.0
2017-Sep-18 07:55N 34°41' E 135°16'0 0.0
2017-Sep-18 07:25N 34°41' E 135°16'0 0.0
2017-Sep-18 07:00N 34°41' E 135°16'0 0.1
2017-Sep-18 06:28N 34°41' E 135°16'2 4.1
2017-Sep-18 06:00N 34°40' E 135°14'1 1.9
2017-Sep-18 05:22N 34°38' E 135°15'2 4.2
2017-Sep-18 05:00N 34°37' E 135°14'611.8
2017-Sep-18 04:30N 34°35' E 135°07'  
2017-Sep-15 07:50N 34°36' E 135°06'412.4
2017-Sep-15 07:30N 34°37' E 135°11'4 2.5
2017-Sep-15 06:03N 34°39' E 135°15'0 0.0
2017-Sep-15 05:57N 34°39' E 135°15'0 0.0
2017-Sep-15 05:27N 34°39' E 135°15'0 0.0
2017-Sep-15 04:57N 34°39' E 135°15'0 0.0
2017-Sep-15 04:29N 34°39' E 135°15'1 1.0
2017-Sep-15 03:56N 34°39' E 135°15'0 0.1
2017-Sep-15 03:26N 34°39' E 135°15'0 0.0
2017-Sep-15 02:56N 34°39' E 135°15'0 0.1
2017-Sep-15 02:20N 34°39' E 135°15'1 3.2
2017-Sep-15 02:00N 34°40' E 135°15'2 3.3
2017-Sep-15 01:30N 34°41' E 135°17'0 0.4
2017-Sep-15 00:57N 34°41' E 135°17'0 0.2
2017-Sep-15 00:27N 34°41' E 135°17'4 9.6
2017-Sep-14 23:59N 34°39' E 135°22'3 6.1
2017-Sep-14 23:30N 34°38' E 135°25'0 0.0
2017-Sep-14 23:00N 34°38' E 135°25'0 0.0
2017-Sep-14 22:24N 34°38' E 135°25'1 1.6
2017-Sep-14 22:00N 34°38' E 135°24'1 2.8
2017-Sep-14 21:29N 34°37' E 135°22'0 0.0
2017-Sep-14 20:59N 34°37' E 135°22'0 0.0
2017-Sep-14 20:29N 34°37' E 135°22'0 0.0
2017-Sep-14 19:59N 34°37' E 135°22'0 0.0
2017-Sep-14 19:29N 34°37' E 135°22'0 0.0
2017-Sep-14 18:59N 34°37' E 135°22'0 0.0
2017-Sep-14 18:29N 34°37' E 135°22'0 0.0
2017-Sep-14 17:59N 34°37' E 135°22'0 0.0
2017-Sep-14 17:23N 34°37' E 135°22'0 0.0
2017-Sep-14 16:59N 34°37' E 135°22'0 0.0
2017-Sep-14 16:29N 34°37' E 135°22'0 0.1
2017-Sep-14 16:00N 34°37' E 135°22'5 9.9
2017-Sep-14 15:30N 34°36' E 135°17'610.9
2017-Sep-14 14:58N 34°35' E 135°10'611.4
2017-Sep-14 14:29N 34°36' E 135°03'1 0.0
2017-Sep-13 00:58N 34°36' E 135°03'510.9
2017-Sep-13 00:29N 34°36' E 135°10'612.2
2017-Sep-12 23:59N 34°37' E 135°17'611.7
2017-Sep-12 23:30N 34°38' E 135°24'1 1.4
2017-Sep-12 22:59N 34°38' E 135°25'0 0.0
2017-Sep-12 22:29N 34°38' E 135°25'0 0.0
2017-Sep-12 22:00N 34°38' E 135°25'5 9.3
2017-Sep-12 21:30N 34°36' E 135°19'611.7
2017-Sep-12 20:59N 34°35' E 135°12'612.7
2017-Sep-12 20:30N 34°35' E 135°05'  
Track history (hours):
 
Tides and Currents Weather Stations Pressure Air Temp Water Temp Dewpoint Dewpoint Depression Visibility Wind Speed Wind Dir Waves Ship Positions

Takatori

Last reported at 2017-Sep-22 01:59 UTC. Time now 2017-Sep-22 22:29 UTC.
Position N 34°41' E 135°16'.

Length 74 m; draft 4 m.

Type: Cargo ship. MMSI: 431501607.

Date/timePositionNaut miles runAvg speedWind from/ knotsBaromVisibWave heightAir tempDewpointWater temp
2017-Sep-22 01:59N 34°41' E 135°16'0 0.2
2017-Sep-22 01:25N 34°41' E 135°16'0 0.0
2017-Sep-22 00:55N 34°41' E 135°16'0 0.2
2017-Sep-22 00:30N 34°41' E 135°17'510.5
2017-Sep-22 00:00N 34°38' E 135°22'2 4.1
2017-Sep-21 23:27N 34°38' E 135°25'0 0.0
2017-Sep-21 22:57N 34°38' E 135°25'0 0.0
2017-Sep-21 22:24N 34°38' E 135°25'0 0.0
2017-Sep-21 22:00N 34°38' E 135°25'1 1.2
2017-Sep-21 21:29N 34°38' E 135°24'510.2
2017-Sep-21 20:57N 34°36' E 135°18'510.8
2017-Sep-21 20:28N 34°35' E 135°12'612.1
2017-Sep-21 19:59N 34°35' E 135°04'1 0.0
2017-Sep-20 06:03N 34°36' E 135°04'310.2
2017-Sep-20 05:47N 34°37' E 135°07'411.2
2017-Sep-20 05:27N 34°37' E 135°11'4 9.0
2017-Sep-20 05:00N 34°40' E 135°15'2 3.1
2017-Sep-20 04:26N 34°41' E 135°17'0 0.6
2017-Sep-20 03:56N 34°41' E 135°17'0 0.0
2017-Sep-20 02:26N 34°41' E 135°17'0 0.0
2017-Sep-20 01:56N 34°41' E 135°17'0 0.0
2017-Sep-20 01:26N 34°41' E 135°17'0 0.0
2017-Sep-20 00:56N 34°41' E 135°17'0 0.0
2017-Sep-20 00:26N 34°41' E 135°17'0 0.0
2017-Sep-19 23:59N 34°41' E 135°17'0 0.0
2017-Sep-19 23:29N 34°41' E 135°17'0 0.1
2017-Sep-19 22:59N 34°41' E 135°17'0 0.0
2017-Sep-19 22:23N 34°41' E 135°17'0 0.0
2017-Sep-19 21:59N 34°41' E 135°17'0 0.0
2017-Sep-19 21:30N 34°41' E 135°17'0 0.0
2017-Sep-19 21:00N 34°41' E 135°17'0 0.0
2017-Sep-19 20:30N 34°41' E 135°17'0 0.0
2017-Sep-19 20:00N 34°41' E 135°17'1 1.4
2017-Sep-19 19:30N 34°40' E 135°16'4 8.9
2017-Sep-19 19:00N 34°37' E 135°12'612.5
2017-Sep-19 18:30N 34°35' E 135°05'2 0.1
2017-Sep-18 11:28N 34°36' E 135°06'611.9
2017-Sep-18 11:00N 34°37' E 135°13'5 9.1
2017-Sep-18 10:29N 34°41' E 135°17'0 0.0
2017-Sep-18 09:49N 34°41' E 135°17'0 0.0
2017-Sep-18 09:25N 34°41' E 135°17'0 0.8
2017-Sep-18 08:55N 34°41' E 135°16'0 0.0
2017-Sep-18 08:25N 34°41' E 135°16'0 0.0
2017-Sep-18 07:55N 34°41' E 135°16'0 0.0
2017-Sep-18 07:25N 34°41' E 135°16'0 0.0
2017-Sep-18 07:00N 34°41' E 135°16'0 0.1
2017-Sep-18 06:28N 34°41' E 135°16'2 4.1
2017-Sep-18 06:00N 34°40' E 135°14'1 1.9
2017-Sep-18 05:22N 34°38' E 135°15'2 4.2
2017-Sep-18 05:00N 34°37' E 135°14'611.8
2017-Sep-18 04:30N 34°35' E 135°07'  
2017-Sep-15 07:50N 34°36' E 135°06'412.4
2017-Sep-15 07:30N 34°37' E 135°11'4 2.5
2017-Sep-15 06:03N 34°39' E 135°15'0 0.0
2017-Sep-15 05:57N 34°39' E 135°15'0 0.0
2017-Sep-15 05:27N 34°39' E 135°15'0 0.0
2017-Sep-15 04:57N 34°39' E 135°15'0 0.0
2017-Sep-15 04:29N 34°39' E 135°15'1 1.0
2017-Sep-15 03:56N 34°39' E 135°15'0 0.1
2017-Sep-15 03:26N 34°39' E 135°15'0 0.0
2017-Sep-15 02:56N 34°39' E 135°15'0 0.1
2017-Sep-15 02:20N 34°39' E 135°15'1 3.2
2017-Sep-15 02:00N 34°40' E 135°15'2 3.3
2017-Sep-15 01:30N 34°41' E 135°17'0 0.4
2017-Sep-15 00:57N 34°41' E 135°17'0 0.2
2017-Sep-15 00:27N 34°41' E 135°17'4 9.6
2017-Sep-14 23:59N 34°39' E 135°22'3 6.1
2017-Sep-14 23:30N 34°38' E 135°25'0 0.0
2017-Sep-14 23:00N 34°38' E 135°25'0 0.0
2017-Sep-14 22:24N 34°38' E 135°25'1 1.6
2017-Sep-14 22:00N 34°38' E 135°24'1 2.8
2017-Sep-14 21:29N 34°37' E 135°22'0 0.0
2017-Sep-14 20:59N 34°37' E 135°22'0 0.0
2017-Sep-14 20:29N 34°37' E 135°22'0 0.0
2017-Sep-14 19:59N 34°37' E 135°22'0 0.0
2017-Sep-14 19:29N 34°37' E 135°22'0 0.0
2017-Sep-14 18:59N 34°37' E 135°22'0 0.0
2017-Sep-14 18:29N 34°37' E 135°22'0 0.0
2017-Sep-14 17:59N 34°37' E 135°22'0 0.0
2017-Sep-14 17:23N 34°37' E 135°22'0 0.0
2017-Sep-14 16:59N 34°37' E 135°22'0 0.0
2017-Sep-14 16:29N 34°37' E 135°22'0 0.1
2017-Sep-14 16:00N 34°37' E 135°22'5 9.9
2017-Sep-14 15:30N 34°36' E 135°17'610.9
2017-Sep-14 14:58N 34°35' E 135°10'611.4
2017-Sep-14 14:29N 34°36' E 135°03'1 0.0
2017-Sep-13 00:58N 34°36' E 135°03'510.9
2017-Sep-13 00:29N 34°36' E 135°10'612.2
2017-Sep-12 23:59N 34°37' E 135°17'611.7
2017-Sep-12 23:30N 34°38' E 135°24'1 1.4
2017-Sep-12 22:59N 34°38' E 135°25'0 0.0
2017-Sep-12 22:29N 34°38' E 135°25'0 0.0
2017-Sep-12 22:00N 34°38' E 135°25'5 9.3
2017-Sep-12 21:30N 34°36' E 135°19'611.7
2017-Sep-12 20:59N 34°35' E 135°12'612.7
2017-Sep-12 20:30N 34°35' E 135°05'  

Dump ship's entire track history